KMIW/MIW METAR and TAF weather

Enter ICAO airport designator
Station Type Date Time Source
KMIW METAR 2020/07/08 21:53 UTC NOAA

KMIW 082153Z AUTO 19010G18KT 10SM FEW048 32/22 A2983 RMK AO2 SLP093 T03220222


Station Type Date Time Source
KMIW Decoded METAR 2020/07/08 21:53 UTC NOAA

MARSHALLTOWN MUNICIPAL AIRPORT , IA, United States (KMIW) 42-07N 92-55W 296M
Jul 08, 2020 - 05:53 PM EDT / 2020.07.08 2153 UTC
Wind: from the S (190 degrees) at 12 MPH (10 KT) gusting to 21 MPH (18 KT):0
Visibility: 10 mile(s):0
Sky conditions: mostly clear
Temperature: 90.0 F (32.2 C)
Heat index: 97.0 F (36.1 C):1
Dew Point: 72.0 F (22.2 C)
Relative Humidity: 55%
Pressure (altimeter): 29.83 in. Hg (1010 hPa)
ob: KMIW 082153Z AUTO 19010G18KT 10SM FEW048 32/22 A2983 RMK AO2 SLP093 T03220222
cycle: 22

Station Type Date Time Source
KMIW TAF UTC NOAA

Error!

Example: see airport list